Time;durP1;ratioP1;P1;durP2;ratioP2;P2;SDS_P1;SDS_P2;PMS_P1;PMS_P2;Temp;Humidity;BMP_temperature;BMP_pressure;BME280_temperature;BME280_humidity;BME280_pressure;Samples;Min_cycle;Max_cycle;Signal;HPM_P1;HPM_P2
2021/03/20 00:00:26;;;;;;;8.10;6.13;;;-2.10;99.90;;;;;;5059683;28;20270;-74
2021/03/20 00:02:53;;;;;;;8.20;5.55;;;-2.20;99.90;;;;;;5062185;28;20243;-72
2021/03/20 00:05:22;;;;;;;8.85;5.25;;;-2.20;99.90;;;;;;5062034;28;20203;-74
2021/03/20 00:07:50;;;;;;;6.90;4.80;;;-2.30;99.90;;;;;;5061992;28;20254;-74
2021/03/20 00:10:24;;;;;;;6.60;5.60;;;-2.30;99.90;;;;;;5061454;28;20496;-74
2021/03/20 00:12:54;;;;;;;7.07;4.90;;;-2.30;99.90;;;;;;5062122;28;20209;-72
2021/03/20 00:15:23;;;;;;;7.07;5.05;;;-2.30;99.90;;;;;;5061986;28;20258;-73
2021/03/20 00:17:57;;;;;;;6.22;5.03;;;-2.40;99.90;;;;;;5062103;28;20211;-73
2021/03/20 00:20:28;;;;;;;6.07;5.30;;;-2.40;99.90;;;;;;5060098;28;20304;-73
2021/03/20 00:22:56;;;;;;;8.35;5.60;;;-2.40;99.90;;;;;;5062032;28;20310;-72
2021/03/20 00:25:25;;;;;;;9.27;5.88;;;-2.40;99.90;;;;;;5061179;28;20585;-73
2021/03/20 00:27:53;;;;;;;7.13;5.35;;;-2.40;99.90;;;;;;5060988;28;20196;-73
2021/03/20 00:30:21;;;;;;;9.55;5.28;;;-2.40;99.90;;;;;;5060569;28;20516;-73
2021/03/20 00:32:47;;;;;;;8.95;5.25;;;-2.40;99.90;;;;;;5060847;28;20710;-73
2021/03/20 00:35:15;;;;;;;8.00;5.68;;;-2.40;99.90;;;;;;5059681;28;20610;-73
2021/03/20 00:37:42;;;;;;;6.45;4.85;;;-2.40;99.90;;;;;;5060062;28;20313;-73
2021/03/20 00:40:12;;;;;;;8.75;6.22;;;-2.40;99.90;;;;;;5059358;28;20227;-73
2021/03/20 00:42:38;;;;;;;8.75;5.90;;;-2.40;99.90;;;;;;5059188;28;20224;-73
2021/03/20 00:45:10;;;;;;;9.93;5.65;;;-2.40;99.90;;;;;;5060168;28;20302;-73
2021/03/20 00:47:36;;;;;;;9.63;6.20;;;-2.50;99.90;;;;;;5060066;28;20218;-73
2021/03/20 00:50:04;;;;;;;8.35;5.70;;;-2.50;99.90;;;;;;5059200;28;20687;-73
2021/03/20 00:52:30;;;;;;;7.30;5.47;;;-2.50;99.90;;;;;;5061671;28;20692;-73
2021/03/20 00:54:57;;;;;;;8.98;5.70;;;-2.40;99.90;;;;;;5064189;28;20254;-73
2021/03/20 00:57:24;;;;;;;9.15;5.97;;;-2.50;99.90;;;;;;5063414;28;20331;-73
2021/03/20 00:59:50;;;;;;;8.98;6.15;;;-2.50;99.90;;;;;;5062807;28;20208;-73
2021/03/20 01:02:17;;;;;;;9.07;6.13;;;-2.50;99.90;;;;;;5063729;28;20629;-73
2021/03/20 01:04:44;;;;;;;8.40;6.18;;;-2.50;99.90;;;;;;5063560;28;20242;-72
2021/03/20 01:07:10;;;;;;;7.70;5.95;;;-2.50;99.90;;;;;;5063856;28;20686;-73
2021/03/20 01:09:37;;;;;;;8.18;6.32;;;-2.50;99.90;;;;;;5062466;28;20240;-73
2021/03/20 01:12:04;;;;;;;7.85;5.15;;;-2.50;99.90;;;;;;5063171;28;20224;-73
2021/03/20 01:14:30;;;;;;;8.15;6.32;;;-2.40;99.90;;;;;;5064870;28;20204;-72
2021/03/20 01:16:57;;;;;;;6.22;5.50;;;-2.40;99.90;;;;;;5069699;28;20204;-73
2021/03/20 01:19:24;;;;;;;9.43;6.50;;;-2.30;99.90;;;;;;5163099;22;20235;-77
2021/03/20 01:21:50;;;;;;;9.13;6.07;;;-2.20;99.90;;;;;;5098947;28;20228;-76
2021/03/20 01:24:17;;;;;;;6.25;5.60;;;-2.20;99.90;;;;;;5072022;28;20580;-76
2021/03/20 01:26:43;;;;;;;13.15;6.63;;;-2.20;99.90;;;;;;5082726;28;20200;-77
2021/03/20 01:29:09;;;;;;;7.68;5.88;;;-2.10;99.90;;;;;;5092442;28;20200;-77
2021/03/20 01:31:36;;;;;;;5.90;5.28;;;-2.10;99.90;;;;;;5090905;28;20240;-76
2021/03/20 01:34:02;;;;;;;9.98;5.70;;;-2.00;99.90;;;;;;5091747;28;20191;-76
2021/03/20 01:36:29;;;;;;;8.52;5.72;;;-2.00;99.90;;;;;;5093066;28;20204;-76
2021/03/20 01:38:55;;;;;;;9.52;5.90;;;-1.90;99.90;;;;;;5092785;28;20273;-77
2021/03/20 01:41:24;;;;;;;8.30;6.13;;;-1.90;99.90;;;;;;5092456;28;20215;-77
2021/03/20 01:43:51;;;;;;;7.82;5.90;;;-1.90;99.90;;;;;;5092772;28;20228;-77
2021/03/20 01:46:43;;;;;;;8.13;6.00;;;-1.90;99.90;;;;;;5092686;28;20199;-77
2021/03/20 01:49:16;;;;;;;9.48;5.65;;;-1.80;99.90;;;;;;5092363;28;20200;-77
2021/03/20 01:51:44;;;;;;;7.07;5.13;;;-1.70;99.90;;;;;;5092357;28;20589;-77
2021/03/20 01:54:11;;;;;;;6.70;5.28;;;-1.70;99.90;;;;;;5092549;28;20191;-77
2021/03/20 01:56:42;;;;;;;7.00;5.53;;;-1.70;99.90;;;;;;5092280;28;20545;-77
2021/03/20 01:59:10;;;;;;;6.68;5.53;;;-1.60;99.90;;;;;;5091837;28;20207;-77
2021/03/20 02:01:38;;;;;;;9.65;5.97;;;-1.50;99.90;;;;;;5092152;28;20367;-77
2021/03/20 02:04:05;;;;;;;7.75;5.60;;;-1.40;99.90;;;;;;5092053;28;20224;-77
2021/03/20 02:06:34;;;;;;;6.40;5.05;;;-1.40;99.90;;;;;;5092054;28;20215;-77
2021/03/20 02:09:04;;;;;;;7.05;5.47;;;-1.50;99.90;;;;;;5091670;28;20200;-77
2021/03/20 02:11:33;;;;;;;9.35;6.13;;;-1.50;99.90;;;;;;5091756;28;20223;-77
2021/03/20 02:14:11;;;;;;;5.72;5.10;;;-1.40;99.90;;;;;;5115770;28;20184;-77
2021/03/20 02:16:44;;;;;;;7.43;5.18;;;-1.40;99.90;;;;;;5114944;28;20180;-78
2021/03/20 02:19:17;;;;;;;8.10;5.57;;;-1.30;99.90;;;;;;5102400;28;20210;-77
2021/03/20 02:21:47;;;;;;;8.98;6.32;;;-1.20;99.90;;;;;;5091386;28;20232;-77
2021/03/20 02:24:44;;;;;;;6.78;5.40;;;-1.20;99.90;;;;;;5090928;28;20219;-77
2021/03/20 02:27:50;;;;;;;6.97;4.57;;;-1.20;99.90;;;;;;5091258;28;20196;-76
2021/03/20 02:30:46;;;;;;;7.05;5.90;;;-1.10;99.90;;;;;;5085112;28;20229;-76
2021/03/20 02:33:43;;;;;;;9.65;5.53;;;-1.10;99.90;;;;;;5089508;28;20607;-77
2021/03/20 02:36:20;;;;;;;8.18;5.43;;;-1.00;99.90;;;;;;5074713;28;20249;-77
2021/03/20 02:38:50;;;;;;;7.15;5.88;;;-1.00;99.90;;;;;;5090067;28;20585;-77
2021/03/20 02:41:27;;;;;;;9.82;5.95;;;-0.90;99.90;;;;;;5090320;28;20738;-77
2021/03/20 02:44:00;;;;;;;8.57;5.55;;;-0.90;99.90;;;;;;5090403;28;20246;-76
2021/03/20 02:46:31;;;;;;;8.77;5.70;;;-0.80;99.90;;;;;;5090313;28;20210;-76
2021/03/20 02:49:06;;;;;;;9.20;5.90;;;-0.80;99.90;;;;;;5089753;28;20204;-77
2021/03/20 02:51:41;;;;;;;7.68;5.85;;;-0.80;99.90;;;;;;5090351;28;20220;-75
2021/03/20 02:54:13;;;;;;;7.30;6.00;;;-0.80;99.90;;;;;;5090056;28;20240;-76
2021/03/20 02:56:45;;;;;;;7.53;5.90;;;-0.80;99.90;;;;;;5090216;28;20200;-76
2021/03/20 02:59:14;;;;;;;8.65;5.90;;;-0.70;99.90;;;;;;5089408;28;20296;-76
2021/03/20 03:01:43;;;;;;;8.65;5.68;;;-0.70;99.90;;;;;;5089688;28;20284;-77
2021/03/20 03:04:15;;;;;;;8.43;6.60;;;-0.70;99.90;;;;;;5089913;28;20223;-76
2021/03/20 03:06:48;;;;;;;8.23;5.35;;;-0.70;99.90;;;;;;5089934;28;20230;-77
2021/03/20 03:09:19;;;;;;;7.50;6.70;;;-0.60;99.90;;;;;;5089388;28;20204;-77
2021/03/20 03:11:51;;;;;;;9.52;6.57;;;-0.70;99.90;;;;;;5089730;28;20227;-77
2021/03/20 03:14:23;;;;;;;8.68;6.18;;;-0.70;99.90;;;;;;5089347;28;20569;-77
2021/03/20 03:16:53;;;;;;;7.43;5.75;;;-0.60;99.90;;;;;;5089787;28;20204;-77
2021/03/20 03:19:26;;;;;;;8.05;6.20;;;-0.70;99.90;;;;;;5089382;28;20207;-77
2021/03/20 03:21:56;;;;;;;9.45;6.68;;;-0.80;99.90;;;;;;5089812;28;20219;-76
2021/03/20 03:24:26;;;;;;;7.20;5.70;;;-0.70;99.90;;;;;;5089624;28;20235;-77
2021/03/20 03:26:57;;;;;;;7.22;6.00;;;-0.70;99.90;;;;;;5089836;28;20203;-76
2021/03/20 03:29:26;;;;;;;8.27;6.53;;;-0.70;99.90;;;;;;5088997;28;20573;-76
2021/03/20 03:32:02;;;;;;;9.23;6.38;;;-0.70;99.90;;;;;;5089945;28;20231;-76
2021/03/20 03:34:35;;;;;;;8.35;6.75;;;-0.70;99.90;;;;;;5089341;28;20206;-76
2021/03/20 03:37:10;;;;;;;8.90;6.22;;;-0.70;99.90;;;;;;5089711;28;20199;-76
2021/03/20 03:39:45;;;;;;;7.75;6.53;;;-0.60;99.90;;;;;;5088847;28;20208;-76
2021/03/20 03:42:13;;;;;;;9.73;6.70;;;-0.50;99.90;;;;;;5089168;28;20229;-77
2021/03/20 03:44:42;;;;;;;8.32;6.20;;;-0.60;99.90;;;;;;5089115;28;20199;-77
2021/03/20 03:47:10;;;;;;;8.20;6.28;;;-0.60;99.90;;;;;;5089211;28;20739;-76
2021/03/20 03:49:37;;;;;;;7.53;6.35;;;-0.60;99.90;;;;;;5088566;28;20264;-76
2021/03/20 03:52:04;;;;;;;8.48;6.50;;;-0.50;99.90;;;;;;5089251;28;20275;-77
2021/03/20 03:54:31;;;;;;;10.82;6.75;;;-0.50;99.90;;;;;;5089057;28;20200;-76
2021/03/20 03:57:17;;;;;;;8.82;7.32;;;-0.50;99.90;;;;;;5089066;28;20202;-76
2021/03/20 03:59:58;;;;;;;9.73;7.63;;;-0.50;99.90;;;;;;5054843;28;20226;-75
2021/03/20 04:02:38;;;;;;;10.57;7.18;;;-0.50;99.90;;;;;;5089034;28;20634;-76
2021/03/20 04:05:10;;;;;;;8.93;7.68;;;-0.50;99.90;;;;;;5089074;28;20195;-76
2021/03/20 04:07:46;;;;;;;9.43;6.82;;;-0.50;99.90;;;;;;5088935;28;20654;-76
2021/03/20 04:10:24;;;;;;;8.35;6.65;;;-0.50;99.90;;;;;;5088654;28;20203;-76
2021/03/20 04:12:58;;;;;;;7.47;6.43;;;-0.60;99.90;;;;;;5089164;28;20196;-76
2021/03/20 04:15:36;;;;;;;9.48;7.32;;;-0.50;99.90;;;;;;5088852;28;20198;-75
2021/03/20 04:18:10;;;;;;;9.30;6.78;;;-0.60;99.90;;;;;;5089045;28;20214;-75
2021/03/20 04:20:44;;;;;;;8.88;6.95;;;-0.70;99.90;;;;;;5088117;28;20200;-76
2021/03/20 04:23:17;;;;;;;8.27;7.05;;;-0.60;99.90;;;;;;5088807;28;20645;-75
2021/03/20 04:25:50;;;;;;;7.80;7.00;;;-0.70;99.90;;;;;;5088554;28;20207;-76
2021/03/20 04:28:41;;;;;;;9.93;7.65;;;-0.70;99.90;;;;;;5092187;28;20206;-76
2021/03/20 04:31:26;;;;;;;8.85;6.40;;;-0.60;99.90;;;;;;5093019;28;20596;-76
2021/03/20 04:34:01;;;;;;;8.18;6.13;;;-0.60;99.90;;;;;;5092935;28;20260;-75
2021/03/20 04:36:35;;;;;;;8.75;6.25;;;-0.60;99.90;;;;;;5093018;28;20606;-76
2021/03/20 04:39:03;;;;;;;8.77;7.07;;;-0.70;99.90;;;;;;5092448;28;20212;-77
2021/03/20 04:41:29;;;;;;;9.23;6.15;;;-0.70;99.90;;;;;;5092561;28;20891;-77
2021/03/20 04:43:58;;;;;;;10.35;7.53;;;-0.70;99.90;;;;;;5092783;28;20227;-75
2021/03/20 04:46:29;;;;;;;11.57;7.65;;;-0.80;99.90;;;;;;5092627;28;20204;-75
2021/03/20 04:49:06;;;;;;;11.80;8.20;;;-0.80;99.90;;;;;;5092430;28;20249;-75
2021/03/20 04:51:38;;;;;;;9.32;6.50;;;-0.80;99.90;;;;;;5092375;28;20248;-76
2021/03/20 04:54:12;;;;;;;7.68;6.32;;;-0.90;99.90;;;;;;5092751;28;20708;-75
2021/03/20 04:56:48;;;;;;;10.05;7.13;;;-0.90;99.90;;;;;;5092262;28;20208;-75
2021/03/20 04:59:52;;;;;;;10.35;7.07;;;-0.90;99.90;;;;;;5091778;28;20298;-76
2021/03/20 05:02:25;;;;;;;8.57;7.28;;;-0.90;99.90;;;;;;5092334;28;20634;-76
2021/03/20 05:04:55;;;;;;;8.77;6.93;;;-0.90;99.90;;;;;;5092465;28;20219;-75
2021/03/20 05:07:24;;;;;;;8.57;6.65;;;-1.00;99.90;;;;;;5092201;28;20663;-75
2021/03/20 05:09:57;;;;;;;9.52;7.00;;;-1.00;99.90;;;;;;5092100;28;20541;-76
2021/03/20 05:12:26;;;;;;;9.32;8.00;;;-1.00;99.90;;;;;;5091967;28;20654;-76
2021/03/20 05:14:57;;;;;;;10.23;7.47;;;-1.00;99.90;;;;;;5092252;28;20204;-76
2021/03/20 05:17:24;;;;;;;8.95;6.97;;;-1.00;99.90;;;;;;5091786;28;20233;-75
2021/03/20 05:19:51;;;;;;;9.40;6.88;;;-1.00;99.90;;;;;;5091764;28;20576;-75
2021/03/20 05:22:21;;;;;;;7.53;6.72;;;-1.00;99.90;;;;;;5091845;28;20223;-76
2021/03/20 05:24:50;;;;;;;10.10;7.90;;;-0.90;99.90;;;;;;5092107;28;20208;-75
2021/03/20 05:27:20;;;;;;;9.32;7.07;;;-1.00;99.90;;;;;;5091835;28;20202;-75
2021/03/20 05:29:47;;;;;;;8.18;7.25;;;-1.00;99.90;;;;;;5091523;28;20207;-76
2021/03/20 05:32:16;;;;;;;8.07;6.65;;;-1.00;99.90;;;;;;5092598;28;20231;-76
2021/03/20 05:34:44;;;;;;;8.90;6.93;;;-1.10;99.90;;;;;;5091777;28;20265;-75
2021/03/20 05:37:19;;;;;;;8.43;6.82;;;-1.10;99.90;;;;;;5091404;28;20214;-75
2021/03/20 05:39:46;;;;;;;8.90;6.95;;;-1.10;99.90;;;;;;5091161;28;20583;-75
2021/03/20 05:42:29;;;;;;;7.93;6.95;;;-1.10;99.90;;;;;;5091779;28;20638;-75
2021/03/20 05:45:06;;;;;;;8.20;7.05;;;-1.10;99.90;;;;;;5091742;28;20625;-75
2021/03/20 05:47:38;;;;;;;8.45;6.35;;;-1.10;99.90;;;;;;5091451;28;20701;-76
2021/03/20 05:50:15;;;;;;;8.60;6.63;;;-1.00;99.90;;;;;;5091123;28;20204;-75
2021/03/20 05:53:15;;;;;;;11.15;7.20;;;-0.90;99.90;;;;;;5091570;28;20219;-76
2021/03/20 05:55:47;;;;;;;9.07;6.70;;;-0.90;99.90;;;;;;5089198;28;20560;-76
2021/03/20 05:58:34;;;;;;;8.57;6.93;;;-0.80;99.90;;;;;;5091765;28;20257;-75
2021/03/20 06:01:09;;;;;;;9.80;6.80;;;-0.80;99.90;;;;;;5092367;28;20225;-76
2021/03/20 06:04:02;;;;;;;7.75;6.28;;;-0.70;99.90;;;;;;5091447;28;20226;-75
2021/03/20 06:06:44;;;;;;;9.57;6.45;;;-0.70;99.90;;;;;;5059693;28;20200;-75
2021/03/20 06:09:30;;;;;;;9.13;6.45;;;-0.70;99.90;;;;;;5090932;28;20670;-76
2021/03/20 06:12:10;;;;;;;8.38;6.20;;;-0.70;99.90;;;;;;5091538;28;20702;-75
2021/03/20 06:14:55;;;;;;;7.50;6.00;;;-0.60;99.90;;;;;;5091152;28;20202;-75
2021/03/20 06:17:38;;;;;;;9.93;7.32;;;-0.60;99.90;;;;;;5091330;28;20203;-75
2021/03/20 06:20:20;;;;;;;7.80;6.15;;;-0.60;99.90;;;;;;5091004;28;20199;-76
2021/03/20 06:23:25;;;;;;;9.13;6.70;;;-0.50;99.90;;;;;;5090669;28;20460;-72
2021/03/20 06:26:06;;;;;;;7.03;6.38;;;-0.50;99.90;;;;;;5071278;28;20455;-72
2021/03/20 06:28:39;;;;;;;7.35;6.25;;;-0.30;99.90;;;;;;5070355;28;20211;-73
2021/03/20 06:31:14;;;;;;;6.13;5.40;;;-0.30;99.90;;;;;;5070839;28;20224;-72
2021/03/20 06:33:47;;;;;;;6.18;5.57;;;-0.20;99.90;;;;;;5071160;28;20204;-72
2021/03/20 06:36:19;;;;;;;9.07;6.82;;;-0.20;99.90;;;;;;5071358;28;20216;-72
2021/03/20 06:38:48;;;;;;;8.35;6.40;;;-0.10;99.90;;;;;;5071344;28;20619;-72
2021/03/20 06:41:27;;;;;;;6.93;5.03;;;0.00;99.90;;;;;;5091744;28;20242;-73
2021/03/20 06:43:59;;;;;;;7.80;5.70;;;0.00;99.90;;;;;;5096272;28;20212;-74
2021/03/20 06:46:30;;;;;;;6.82;5.80;;;0.10;99.90;;;;;;5081578;28;20200;-73
2021/03/20 06:48:57;;;;;;;5.43;4.88;;;0.20;99.90;;;;;;5069639;28;20223;-73
2021/03/20 06:51:24;;;;;;;6.28;5.65;;;0.30;99.90;;;;;;5070439;28;20220;-73
2021/03/20 06:53:57;;;;;;;6.97;5.60;;;0.30;99.90;;;;;;5071530;28;20225;-74
2021/03/20 06:56:24;;;;;;;5.70;5.10;;;0.40;99.90;;;;;;5071070;28;20205;-73
2021/03/20 06:58:51;;;;;;;5.50;4.70;;;0.40;99.90;;;;;;5069628;28;20219;-74
2021/03/20 07:01:26;;;;;;;6.22;5.05;;;0.40;99.90;;;;;;5070044;28;20299;-73
2021/03/20 07:04:21;;;;;;;8.73;5.32;;;0.50;99.90;;;;;;5070201;28;20244;-73
2021/03/20 07:07:11;;;;;;;5.53;4.68;;;0.60;99.90;;;;;;5070268;28;20277;-73
2021/03/20 07:09:40;;;;;;;6.25;4.68;;;0.70;99.90;;;;;;5069465;28;20690;-73
2021/03/20 07:12:09;;;;;;;6.28;4.55;;;0.80;99.90;;;;;;5072814;28;20212;-74
2021/03/20 07:14:41;;;;;;;6.35;4.80;;;0.80;99.90;;;;;;5078927;28;20254;-75
2021/03/20 07:17:11;;;;;;;5.05;4.10;;;0.90;99.90;;;;;;5078846;28;20199;-73
2021/03/20 07:24:29;;;;;;;4.80;3.58;;;0.90;99.90;;;;;;5040596;28;20224;-91
2021/03/20 07:31:15;;;;;;;3.92;3.53;;;0.70;99.90;;;;;;4983725;28;20279;-92
2021/03/20 07:37:29;;;;;;;4.95;4.25;;;0.80;99.90;;;;;;4968999;22;20221;-69
2021/03/20 07:39:59;;;;;;;4.05;3.10;;;1.00;99.90;;;;;;5034541;28;20222;-70
2021/03/20 07:42:30;;;;;;;5.93;3.75;;;1.30;99.90;;;;;;5029139;28;20226;-71
2021/03/20 07:44:59;;;;;;;4.38;3.72;;;1.90;99.90;;;;;;5029479;28;20206;-69
2021/03/20 07:47:28;;;;;;;4.07;3.10;;;2.50;99.90;;;;;;5029557;28;20288;-69
2021/03/20 07:50:10;;;;;;;3.63;3.33;;;3.10;99.90;;;;;;5028940;28;20260;-70
2021/03/20 07:52:37;;;;;;;4.68;4.07;;;3.20;99.90;;;;;;5028996;28;20704;-70
2021/03/20 07:55:08;;;;;;;3.55;3.22;;;3.30;99.90;;;;;;5029023;28;20213;-69
2021/03/20 07:57:34;;;;;;;4.07;3.33;;;3.20;99.90;;;;;;5029190;28;20209;-70
2021/03/20 08:00:04;;;;;;;5.65;3.70;;;3.10;99.90;;;;;;5028700;28;20206;-69
2021/03/20 08:02:32;;;;;;;3.95;3.45;;;3.00;99.90;;;;;;5028978;28;20697;-70
2021/03/20 08:05:02;;;;;;;3.80;3.50;;;2.80;99.90;;;;;;5028975;28;20201;-69
2021/03/20 08:07:32;;;;;;;4.18;3.78;;;2.60;99.90;;;;;;5029069;28;20201;-69
2021/03/20 08:10:15;;;;;;;6.22;4.45;;;2.40;99.90;;;;;;5028161;28;20512;-69
2021/03/20 08:12:58;;;;;;;5.70;4.85;;;2.30;99.90;;;;;;5028760;28;20236;-68
2021/03/20 08:15:27;;;;;;;5.30;3.80;;;2.40;99.90;;;;;;5028773;28;20198;-70
2021/03/20 08:17:54;;;;;;;4.10;3.70;;;2.50;99.90;;;;;;5029010;28;20205;-68
2021/03/20 08:20:21;;;;;;;4.30;3.90;;;2.20;99.90;;;;;;5027928;28;20208;-67
2021/03/20 08:23:09;;;;;;;3.78;3.45;;;1.80;99.90;;;;;;5028681;28;20677;-66
2021/03/20 08:25:49;;;;;;;3.67;3.35;;;1.70;99.90;;;;;;5028704;28;20501;-68
2021/03/20 08:28:38;;;;;;;8.50;3.88;;;1.50;99.90;;;;;;5039648;28;20208;-69
2021/03/20 08:31:09;;;;;;;4.22;3.80;;;1.50;99.90;;;;;;5041268;28;20225;-68
2021/03/20 08:34:10;;;;;;;4.55;3.60;;;2.50;99.90;;;;;;5049033;28;20270;-69
2021/03/20 08:36:51;;;;;;;7.47;4.25;;;4.40;98.40;;;;;;5016392;28;20280;-68
2021/03/20 08:39:27;;;;;;;4.40;3.80;;;5.60;95.50;;;;;;5048076;28;20212;-69
2021/03/20 08:42:09;;;;;;;5.70;3.60;;;5.80;93.80;;;;;;5048728;28;20220;-69
2021/03/20 08:44:54;;;;;;;6.10;3.40;;;6.30;93.10;;;;;;5048774;28;20221;-69
2021/03/20 08:47:39;;;;;;;3.08;2.70;;;6.60;92.80;;;;;;5048858;28;20207;-69
2021/03/20 08:50:18;;;;;;;2.80;2.50;;;7.10;90.00;;;;;;5048006;28;20208;-68
2021/03/20 08:52:54;;;;;;;3.30;3.00;;;6.70;90.20;;;;;;5048711;28;20221;-68
2021/03/20 08:55:47;;;;;;;3.30;3.00;;;6.50;91.10;;;;;;5048586;28;20231;-69
2021/03/20 08:58:29;;;;;;;2.80;2.50;;;6.10;91.10;;;;;;5048525;28;20215;-69
2021/03/20 09:00:59;;;;;;;2.97;2.78;;;5.90;90.60;;;;;;5048105;28;20229;-69
2021/03/20 09:03:33;;;;;;;2.80;2.50;;;5.80;91.40;;;;;;5048734;28;20221;-68
2021/03/20 09:06:03;;;;;;;2.97;2.65;;;6.10;89.80;;;;;;5048286;28;20212;-69
2021/03/20 09:08:34;;;;;;;3.25;2.95;;;6.30;89.60;;;;;;5048815;28;20206;-69
2021/03/20 09:11:05;;;;;;;3.50;3.08;;;7.60;90.30;;;;;;5048309;28;20279;-69
2021/03/20 09:13:38;;;;;;;4.78;2.95;;;9.30;86.80;;;;;;5050768;28;20223;-69
2021/03/20 09:16:15;;;;;;;3.25;2.58;;;10.50;80.30;;;;;;5052340;28;20209;-68
2021/03/20 09:18:42;;;;;;;3.08;2.75;;;10.00;78.90;;;;;;5052067;28;20458;-69
2021/03/20 09:21:11;;;;;;;2.92;2.63;;;10.50;78.20;;;;;;5051998;28;20228;-68
2021/03/20 09:23:42;;;;;;;2.80;2.60;;;10.90;80.60;;;;;;5052306;28;20227;-68
2021/03/20 09:26:11;;;;;;;3.45;2.70;;;11.30;77.00;;;;;;5052171;28;20679;-68
2021/03/20 09:29:07;;;;;;;2.55;2.33;;;12.20;78.20;;;;;;5051958;28;20212;-68
2021/03/20 09:32:11;;;;;;;3.00;2.40;;;13.70;72.60;;;;;;5017238;28;20228;-68
2021/03/20 09:34:51;;;;;;;2.80;2.60;;;13.70;68.20;;;;;;5052405;28;20611;-69
2021/03/20 09:37:57;;;;;;;3.22;2.92;;;12.70;67.80;;;;;;5052518;28;20216;-67
2021/03/20 09:40:44;;;;;;;3.45;3.15;;;12.20;68.90;;;;;;5051332;28;20282;-69
2021/03/20 09:43:31;;;;;;;2.63;2.20;;;11.00;68.90;;;;;;5051681;28;20225;-70
2021/03/20 09:46:44;;;;;;;3.35;2.35;;;11.30;69.00;;;;;;5051774;28;20576;-69
2021/03/20 09:49:48;;;;;;;2.80;2.40;;;12.00;66.70;;;;;;5051307;28;20205;-69
2021/03/20 09:52:43;;;;;;;3.00;2.60;;;12.80;66.30;;;;;;5051565;28;20225;-68
2021/03/20 09:55:42;;;;;;;3.35;2.45;;;13.70;68.20;;;;;;5051701;28;20251;-68
2021/03/20 09:58:41;;;;;;;4.25;2.80;;;15.00;64.90;;;;;;5051511;28;20267;-68
2021/03/20 10:01:18;;;;;;;2.70;2.50;;;14.80;61.00;;;;;;5051584;28;20278;-70
2021/03/20 10:04:18;;;;;;;2.47;2.28;;;13.10;60.60;;;;;;5051200;28;20721;-70
2021/03/20 10:07:04;;;;;;;3.20;2.45;;;11.30;60.70;;;;;;5051485;28;20209;-69
2021/03/20 10:09:30;;;;;;;4.35;2.80;;;10.50;63.20;;;;;;5050352;28;20197;-69
2021/03/20 10:12:14;;;;;;;4.40;2.35;;;10.40;63.50;;;;;;5051164;28;20735;-69
2021/03/20 10:15:11;;;;;;;2.80;2.33;;;11.10;66.40;;;;;;5050964;28;20201;-69
2021/03/20 10:18:00;;;;;;;2.45;2.25;;;12.40;61.10;;;;;;5051373;28;20208;-70
2021/03/20 10:20:38;;;;;;;3.47;2.33;;;14.30;60.20;;;;;;5050258;28;20196;-70
2021/03/20 10:23:13;;;;;;;3.10;2.50;;;15.70;57.20;;;;;;5050724;28;20603;-70
2021/03/20 10:25:44;;;;;;;4.32;2.30;;;16.70;57.80;;;;;;5049602;28;20204;-69
2021/03/20 10:28:11;;;;;;;2.38;2.17;;;16.70;57.80;;;;;;5050523;28;20727;-69
2021/03/20 10:30:39;;;;;;;3.53;2.20;;;16.90;53.90;;;;;;5049572;28;20278;-69
2021/03/20 10:33:07;;;;;;;3.15;2.70;;;16.50;54.70;;;;;;5045307;28;20197;-69
2021/03/20 10:35:37;;;;;;;2.40;2.20;;;16.70;54.10;;;;;;5052862;28;20205;-70
2021/03/20 10:38:15;;;;;;;2.70;2.50;;;17.30;54.40;;;;;;5051865;28;20197;-69
2021/03/20 10:40:42;;;;;;;2.40;2.20;;;17.70;51.50;;;;;;5051474;28;20205;-68
2021/03/20 10:43:13;;;;;;;2.40;2.20;;;17.90;53.30;;;;;;5051120;28;20483;-70
2021/03/20 10:45:42;;;;;;;2.70;2.40;;;17.40;52.40;;;;;;5051554;28;20550;-70
2021/03/20 10:48:16;;;;;;;2.70;2.50;;;16.50;53.40;;;;;;5051413;28;21042;-68
2021/03/20 10:50:45;;;;;;;2.70;2.10;;;17.10;53.50;;;;;;5051259;28;20463;-69
2021/03/20 10:53:18;;;;;;;2.57;2.37;;;17.80;49.60;;;;;;5051120;28;20463;-68
2021/03/20 10:55:48;;;;;;;2.73;2.20;;;18.30;50.30;;;;;;5051511;28;20463;-68
2021/03/20 10:58:23;;;;;;;2.90;2.30;;;18.50;48.50;;;;;;5051444;28;20482;-68
2021/03/20 11:00:50;;;;;;;2.37;2.17;;;18.60;49.10;;;;;;5050527;28;20478;-68
2021/03/20 11:03:22;;;;;;;3.27;2.43;;;17.50;47.30;;;;;;5051242;28;21059;-68
2021/03/20 11:05:49;;;;;;;2.50;2.30;;;17.60;49.20;;;;;;5051546;28;21031;-70
2021/03/20 11:08:27;;;;;;;2.70;2.50;;;18.10;50.80;;;;;;5051851;28;21164;-71
2021/03/20 11:11:08;;;;;;;2.67;2.47;;;18.70;48.70;;;;;;5051114;28;20861;-68
2021/03/20 11:13:38;;;;;;;2.63;2.43;;;19.00;48.60;;;;;;5051160;28;21244;-69
2021/03/20 11:16:08;;;;;;;3.07;2.77;;;18.80;49.00;;;;;;5049859;28;20470;-67
2021/03/20 11:18:39;;;;;;;2.90;2.47;;;18.40;47.30;;;;;;5049318;28;20459;-67
2021/03/20 11:21:16;;;;;;;2.70;2.50;;;17.20;48.30;;;;;;5049769;28;20854;-70
2021/03/20 11:23:42;;;;;;;3.80;2.83;;;16.60;49.10;;;;;;5049405;28;21137;-70
2021/03/20 11:26:12;;;;;;;2.87;2.50;;;15.80;49.80;;;;;;5049311;28;20671;-69
2021/03/20 11:28:39;;;;;;;3.40;2.77;;;16.00;49.90;;;;;;5049088;28;20993;-70
2021/03/20 11:31:07;;;;;;;2.60;2.40;;;16.20;50.70;;;;;;5049118;28;20488;-69
2021/03/20 11:33:40;;;;;;;2.63;2.43;;;16.60;50.90;;;;;;5049788;28;20452;-69
2021/03/20 11:36:13;;;;;;;2.43;2.23;;;17.50;47.90;;;;;;5048646;28;20470;-70
2021/03/20 11:38:39;;;;;;;2.13;2.03;;;18.20;49.30;;;;;;5049659;28;20589;-68
2021/03/20 11:41:22;;;;;;;5.90;2.93;;;18.60;46.80;;;;;;5049327;28;21024;-69
2021/03/20 11:43:58;;;;;;;3.20;2.63;;;18.90;44.20;;;;;;5049040;28;21005;-70
2021/03/20 11:46:28;;;;;;;2.83;2.53;;;18.70;46.60;;;;;;5049241;28;20455;-70
2021/03/20 11:48:57;;;;;;;3.40;2.57;;;18.70;46.70;;;;;;5048401;28;20459;-69
2021/03/20 11:51:26;;;;;;;4.13;2.27;;;17.00;46.30;;;;;;5042866;28;22268;-69
2021/03/20 11:53:57;;;;;;;3.20;3.00;;;16.90;47.00;;;;;;5037648;28;20521;-68
2021/03/20 11:56:28;;;;;;;2.53;2.20;;;17.10;46.90;;;;;;5027270;28;20460;-69
2021/03/20 11:58:58;;;;;;;2.60;2.40;;;16.30;49.60;;;;;;5025339;28;20494;-70
2021/03/20 12:01:30;;;;;;;2.53;2.17;;;16.70;48.30;;;;;;5025464;28;20484;-69
2021/03/20 12:04:00;;;;;;;2.67;2.43;;;16.10;49.20;;;;;;5025617;28;20484;-69
2021/03/20 12:06:30;;;;;;;4.83;2.40;;;16.50;49.30;;;;;;5025823;28;20505;-69
2021/03/20 12:08:58;;;;;;;3.77;3.00;;;17.30;46.90;;;;;;5025334;28;20461;-69
2021/03/20 12:11:52;;;;;;;3.07;2.07;;;17.70;47.30;;;;;;5025918;28;21186;-69
2021/03/20 12:14:31;;;;;;;3.83;2.80;;;18.00;45.90;;;;;;5025114;28;20460;-70
2021/03/20 12:17:22;;;;;;;3.40;3.10;;;17.30;46.40;;;;;;5025601;28;20456;-68
2021/03/20 12:20:01;;;;;;;4.07;2.47;;;16.60;48.00;;;;;;5025275;28;20479;-67
2021/03/20 12:22:48;;;;;;;3.67;2.93;;;16.50;50.80;;;;;;5025979;28;20927;-69
2021/03/20 12:25:28;;;;;;;2.93;2.63;;;16.40;50.00;;;;;;5025234;28;20530;-69
2021/03/20 12:28:15;;;;;;;2.83;2.50;;;17.00;50.70;;;;;;5026079;28;20471;-69
2021/03/20 12:30:42;;;;;;;5.47;3.20;;;18.30;49.30;;;;;;5024211;28;20547;-70
2021/03/20 12:33:17;;;;;;;2.80;2.60;;;18.20;47.50;;;;;;5032158;28;20481;-70
2021/03/20 12:35:46;;;;;;;3.27;2.83;;;17.00;49.50;;;;;;5045694;28;20463;-70
2021/03/20 12:38:19;;;;;;;4.47;3.07;;;16.30;51.20;;;;;;5045127;28;20557;-69
2021/03/20 12:40:55;;;;;;;3.77;3.47;;;16.20;52.10;;;;;;5045066;28;20483;-69
2021/03/20 12:43:27;;;;;;;3.40;2.73;;;15.80;49.30;;;;;;5045073;28;20493;-69
2021/03/20 12:45:54;;;;;;;3.47;3.17;;;15.60;49.80;;;;;;5044437;28;21012;-69
2021/03/20 12:48:23;;;;;;;2.87;2.67;;;15.80;50.50;;;;;;5045654;28;20536;-70
2021/03/20 12:50:54;;;;;;;3.43;3.13;;;16.20;48.60;;;;;;5047390;28;20609;-70
2021/03/20 12:53:21;;;;;;;2.97;2.73;;;16.20;50.40;;;;;;5048019;28;20566;-69
2021/03/20 12:55:47;;;;;;;3.30;2.90;;;16.70;50.40;;;;;;5049466;28;20470;-69
2021/03/20 12:58:13;;;;;;;3.10;2.90;;;16.70;50.20;;;;;;5048431;28;20830;-69
2021/03/20 13:00:40;;;;;;;3.47;3.17;;;16.40;49.00;;;;;;5048711;28;20471;-70
2021/03/20 13:03:06;;;;;;;3.20;2.73;;;16.30;49.60;;;;;;5048685;28;21350;-69
2021/03/20 13:05:36;;;;;;;3.23;2.93;;;16.70;49.50;;;;;;5048475;28;20470;-70
2021/03/20 13:08:03;;;;;;;2.80;2.60;;;16.90;48.60;;;;;;5048640;28;20475;-70
2021/03/20 13:10:30;;;;;;;3.30;3.00;;;17.30;49.10;;;;;;5048363;28;20471;-70
2021/03/20 13:12:56;;;;;;;3.07;2.77;;;17.10;49.80;;;;;;5048925;28;20966;-70
2021/03/20 13:15:24;;;;;;;3.70;3.40;;;16.50;50.60;;;;;;5048149;28;20459;-69
2021/03/20 13:17:51;;;;;;;4.20;2.97;;;15.70;49.30;;;;;;5048372;28;21020;-69
2021/03/20 13:20:20;;;;;;;5.03;3.10;;;15.60;49.60;;;;;;5048128;28;20890;-69
2021/03/20 13:22:47;;;;;;;3.53;3.23;;;15.80;49.40;;;;;;5048391;28;20494;-69
2021/03/20 13:25:24;;;;;;;3.30;2.50;;;15.70;51.20;;;;;;5048102;28;20482;-67
2021/03/20 13:27:51;;;;;;;2.83;2.63;;;15.80;48.90;;;;;;5048950;28;20455;-68
2021/03/20 13:30:22;;;;;;;3.00;2.70;;;16.10;48.80;;;;;;5047392;28;20467;-67
2021/03/20 13:32:50;;;;;;;3.40;3.10;;;15.90;49.30;;;;;;5048733;28;20518;-69
2021/03/20 13:35:16;;;;;;;2.80;2.60;;;14.90;50.90;;;;;;5033828;28;20453;-68